M/V Terry Bordelon — WDA5140 — position and weather

sailwx.info

Track history (hours):
 
Tides and Currents Weather Stations Pressure Air Temp Water Temp Dewpoint Dewpoint Depression Visibility Wind Speed Wind Dir Waves Ship Positions

M/V Terry Bordelon

More information available from US FCC via Universal Licensing System and Coast Guard Vessel Documentation Center.

Last reported at 2014-Jul-17 12:33 UTC. Time now 2014-Jul-26 03:11 UTC.
Position N 29°09' W 090°13'.
Warning: this ship's position is 8 days out of date.

; draft 3 m.

Type: Cargo ship. MMSI: 366816910.

Date/timePositionNaut miles runAvg speedWind from/ knotsBaromVisibWave heightAir tempDewpointWater temp
2014-Jul-17 12:33N 29°09' W 090°13'  
2014-Jul-14 22:19N 29°26' W 091°20'6 8.3
2014-Jul-14 21:33N 29°32' W 091°17'7 6.9
2014-Jul-14 20:33N 29°39' W 091°14'2 1.9
2014-Jul-14 19:32N 29°40' W 091°14'1 0.6
2014-Jul-14 18:31N 29°40' W 091°14'4 4.4
2014-Jul-14 17:33N 29°41' W 091°10'5 5.1
2014-Jul-14 16:33N 29°38' W 091°05'7 6.6
2014-Jul-14 15:33N 29°35' W 090°58'14 4.1
2014-Jul-14 12:10N 29°33' W 090°42'0 0.0
2014-Jul-14 08:24N 29°33' W 090°42'1 0.2
2014-Jul-14 05:16N 29°32' W 090°42'  
Track history (hours):
 
Tides and Currents Weather Stations Pressure Air Temp Water Temp Dewpoint Dewpoint Depression Visibility Wind Speed Wind Dir Waves Ship Positions

M/V Terry Bordelon

More information available from US FCC via Universal Licensing System and Coast Guard Vessel Documentation Center.

Last reported at 2014-Jul-17 12:33 UTC. Time now 2014-Jul-26 03:11 UTC.
Position N 29°09' W 090°13'.
Warning: this ship's position is 8 days out of date.

; draft 3 m.

Type: Cargo ship. MMSI: 366816910.

Date/timePositionNaut miles runAvg speedWind from/ knotsBaromVisibWave heightAir tempDewpointWater temp
2014-Jul-17 12:33N 29°09' W 090°13'  
2014-Jul-14 22:19N 29°26' W 091°20'6 8.3
2014-Jul-14 21:33N 29°32' W 091°17'7 6.9
2014-Jul-14 20:33N 29°39' W 091°14'2 1.9
2014-Jul-14 19:32N 29°40' W 091°14'1 0.6
2014-Jul-14 18:31N 29°40' W 091°14'4 4.4
2014-Jul-14 17:33N 29°41' W 091°10'5 5.1
2014-Jul-14 16:33N 29°38' W 091°05'7 6.6
2014-Jul-14 15:33N 29°35' W 090°58'14 4.1
2014-Jul-14 12:10N 29°33' W 090°42'0 0.0
2014-Jul-14 08:24N 29°33' W 090°42'1 0.2
2014-Jul-14 05:16N 29°32' W 090°42'  

Dump ship's entire track history